Time;durP1;ratioP1;P1;durP2;ratioP2;P2;SDS_P1;SDS_P2;PMS_P1;PMS_P2;Temp;Humidity;BMP_temperature;BMP_pressure;BME280_temperature;BME280_humidity;BME280_pressure;Samples;Min_cycle;Max_cycle;Signal;HPM_P1;HPM_P2
2022/03/11 00:00:33;;;;;;;3.47;2.50;;;21.90;52.00;;;;;;5107380;28;20177;-91
2022/03/11 00:03:01;;;;;;;4.80;2.77;;;21.90;52.00;;;;;;5108642;28;20225;-91
2022/03/11 00:05:28;;;;;;;4.20;3.40;;;21.90;52.00;;;;;;5107864;28;20188;-92
2022/03/11 00:07:55;;;;;;;3.87;3.10;;;21.90;52.10;;;;;;5107874;28;20811;-91
2022/03/11 00:10:22;;;;;;;4.53;2.80;;;21.90;52.10;;;;;;5110760;28;20415;-91
2022/03/11 00:15:24;;;;;;;4.53;2.83;;;21.90;52.10;;;;;;5161514;23;20494;-91
2022/03/11 00:17:51;;;;;;;3.07;2.60;;;21.80;52.00;;;;;;5007356;28;20439;-91
2022/03/11 00:20:19;;;;;;;3.00;2.70;;;21.90;52.10;;;;;;5006815;28;20424;-91
2022/03/11 00:22:46;;;;;;;3.93;3.03;;;21.80;52.00;;;;;;5006970;28;20767;-91
2022/03/11 00:25:12;;;;;;;3.93;2.73;;;21.90;52.10;;;;;;5002988;28;20420;-91
2022/03/11 00:27:38;;;;;;;3.60;2.70;;;21.80;52.10;;;;;;4999918;28;20794;-91
2022/03/11 00:30:05;;;;;;;3.50;3.20;;;21.80;52.00;;;;;;4992433;28;20425;-92
2022/03/11 00:32:30;;;;;;;5.10;3.33;;;21.90;52.10;;;;;;4988455;28;20575;-92
2022/03/11 00:34:56;;;;;;;5.27;3.13;;;21.80;52.00;;;;;;4987164;28;20425;-92
2022/03/11 00:37:22;;;;;;;3.90;2.90;;;21.80;52.00;;;;;;4988150;28;20599;-91
2022/03/11 00:39:50;;;;;;;4.20;2.73;;;21.80;52.00;;;;;;4988279;28;20186;-91
2022/03/11 00:42:16;;;;;;;4.50;2.70;;;21.80;52.10;;;;;;5002295;28;20186;-91
2022/03/11 00:44:49;;;;;;;3.80;2.80;;;21.80;52.10;;;;;;5001877;28;20448;-91
2022/03/11 00:47:30;;;;;;;;;;;;;;;;;;;;;
2022/03/11 00:50:06;;;;;;;3.80;2.47;;;21.80;52.10;;;;;;5006168;28;20509;-92
2022/03/11 00:52:32;;;;;;;5.63;3.30;;;21.80;52.10;;;;;;5005950;28;20463;-92
2022/03/11 00:54:57;;;;;;;3.30;2.60;;;21.80;52.10;;;;;;5017869;28;20423;-92
2022/03/11 00:57:23;;;;;;;4.07;2.40;;;21.80;52.20;;;;;;5001144;28;20185;-92
2022/03/11 00:59:49;;;;;;;3.60;2.70;;;21.80;52.20;;;;;;5005904;28;20181;-92
2022/03/11 01:02:17;;;;;;;2.40;2.03;;;21.80;52.10;;;;;;5002577;28;20189;-91
2022/03/11 01:04:43;;;;;;;3.00;2.40;;;21.80;52.10;;;;;;5002248;28;20192;-92
2022/03/11 01:07:08;;;;;;;3.97;2.53;;;21.80;52.10;;;;;;5000532;28;20440;-93
2022/03/11 01:09:34;;;;;;;3.73;2.90;;;21.80;52.10;;;;;;5003570;28;20698;-92
2022/03/11 01:12:05;;;;;;;3.70;2.63;;;21.80;52.10;;;;;;5000969;28;20189;-92
2022/03/11 01:14:31;;;;;;;3.40;2.47;;;21.80;52.10;;;;;;4995674;28;20204;-93
2022/03/11 01:16:57;;;;;;;2.77;2.47;;;21.80;52.10;;;;;;5002492;28;20424;-91
2022/03/11 01:19:23;;;;;;;3.93;2.60;;;21.80;52.10;;;;;;5001839;28;20265;-92
2022/03/11 01:21:49;;;;;;;4.83;2.80;;;21.80;52.10;;;;;;5001915;28;20416;-92
2022/03/11 01:24:15;;;;;;;3.20;2.40;;;21.80;52.10;;;;;;5001818;28;22165;-91
2022/03/11 01:26:41;;;;;;;2.47;2.00;;;21.80;52.10;;;;;;5001513;28;20424;-91
2022/03/11 01:29:08;;;;;;;3.50;2.47;;;21.80;52.10;;;;;;5001243;28;20189;-92
2022/03/11 01:31:34;;;;;;;3.97;3.20;;;21.80;52.10;;;;;;5001477;28;20181;-92
2022/03/11 01:34:00;;;;;;;2.50;2.30;;;21.80;52.10;;;;;;5001593;28;20467;-92
2022/03/11 01:36:25;;;;;;;3.33;2.67;;;21.80;52.20;;;;;;5001513;28;20199;-92
2022/03/11 01:38:51;;;;;;;3.67;2.40;;;21.80;52.20;;;;;;5002688;28;20257;-92
2022/03/11 01:41:17;;;;;;;2.90;2.47;;;21.80;52.20;;;;;;5001285;28;20185;-92
2022/03/11 01:43:58;;;;;;;4.40;2.73;;;21.80;52.20;;;;;;5003101;28;20185;-92
2022/03/11 01:46:24;;;;;;;3.43;2.50;;;21.80;52.10;;;;;;5020077;28;20173;-92
2022/03/11 01:48:50;;;;;;;2.73;2.30;;;21.70;52.10;;;;;;5004004;28;20492;-92
2022/03/11 01:51:16;;;;;;;4.23;3.63;;;21.80;52.20;;;;;;5002310;28;20185;-92
2022/03/11 01:53:43;;;;;;;4.40;3.03;;;21.70;52.10;;;;;;5005233;28;20448;-92
2022/03/11 01:56:09;;;;;;;2.90;2.60;;;21.70;52.10;;;;;;5000030;28;20416;-92
2022/03/11 01:58:35;;;;;;;3.70;2.43;;;21.70;52.10;;;;;;5003609;28;20415;-92
2022/03/11 02:01:02;;;;;;;3.87;2.70;;;21.70;52.10;;;;;;5003678;28;20401;-92
2022/03/11 02:03:28;;;;;;;3.70;2.43;;;21.70;52.10;;;;;;5001438;28;20416;-92
2022/03/11 02:05:54;;;;;;;3.07;2.13;;;21.70;52.10;;;;;;5001691;28;20467;-92
2022/03/11 02:08:22;;;;;;;3.67;2.60;;;21.70;52.10;;;;;;5000939;28;20193;-92
2022/03/11 02:10:48;;;;;;;3.80;2.23;;;21.70;52.10;;;;;;5003383;28;20181;-92
2022/03/11 02:13:14;;;;;;;3.00;2.23;;;21.70;52.20;;;;;;5001461;28;20977;-92
2022/03/11 02:15:39;;;;;;;2.97;2.33;;;21.70;52.10;;;;;;5002641;28;20196;-92
2022/03/11 02:18:05;;;;;;;4.17;2.70;;;21.70;52.10;;;;;;5000733;28;20181;-93
2022/03/11 02:20:31;;;;;;;3.33;2.03;;;21.70;52.20;;;;;;5002349;28;20248;-92
2022/03/11 02:22:58;;;;;;;3.10;2.63;;;21.70;52.20;;;;;;5002606;28;20197;-92
2022/03/11 02:25:24;;;;;;;3.93;3.00;;;21.70;52.20;;;;;;5001989;28;20436;-92
2022/03/11 02:27:49;;;;;;;3.10;2.57;;;21.70;52.20;;;;;;5001940;28;20429;-92
2022/03/11 02:30:20;;;;;;;3.53;2.80;;;21.70;52.20;;;;;;5001759;28;20185;-92
2022/03/11 02:32:47;;;;;;;2.97;2.60;;;21.70;52.20;;;;;;5003083;28;20201;-91
2022/03/11 02:35:13;;;;;;;2.93;2.60;;;21.70;52.20;;;;;;5002956;28;20416;-92
2022/03/11 02:37:39;;;;;;;3.80;2.43;;;21.70;52.20;;;;;;5003247;28;20433;-91
2022/03/11 02:40:06;;;;;;;2.73;2.50;;;21.70;52.20;;;;;;5002137;28;20428;-92
2022/03/11 02:42:32;;;;;;;3.27;2.20;;;21.70;52.20;;;;;;5002562;28;20249;-91
2022/03/11 02:45:00;;;;;;;3.07;2.37;;;21.70;52.20;;;;;;5003964;28;20459;-91
2022/03/11 02:47:27;;;;;;;2.67;1.90;;;21.70;52.20;;;;;;5005179;28;20423;-91
2022/03/11 02:49:53;;;;;;;2.47;2.00;;;21.70;52.20;;;;;;5005131;28;20416;-92
2022/03/11 02:52:19;;;;;;;3.97;2.70;;;21.70;52.20;;;;;;5005731;28;20468;-91
2022/03/11 02:54:44;;;;;;;3.63;2.50;;;21.70;52.20;;;;;;5006478;28;20411;-91
2022/03/11 02:57:10;;;;;;;2.90;2.47;;;21.70;52.20;;;;;;5006775;28;20176;-91
2022/03/11 02:59:36;;;;;;;2.60;2.00;;;21.70;52.20;;;;;;5005780;28;20177;-91
2022/03/11 03:02:02;;;;;;;3.27;2.07;;;21.70;52.30;;;;;;5020118;28;20180;-91
2022/03/11 03:04:27;;;;;;;3.23;2.30;;;21.70;52.20;;;;;;5006200;28;20247;-92
2022/03/11 03:06:55;;;;;;;3.33;2.47;;;21.70;52.20;;;;;;5005657;28;20444;-91
2022/03/11 03:09:21;;;;;;;2.40;2.20;;;21.70;52.20;;;;;;5004820;28;20165;-93
2022/03/11 03:11:46;;;;;;;2.67;2.47;;;21.70;52.20;;;;;;5003195;28;20911;-92
2022/03/11 03:14:13;;;;;;;3.50;2.57;;;21.70;52.20;;;;;;5004853;28;20471;-92
2022/03/11 03:16:38;;;;;;;3.20;2.20;;;21.60;52.20;;;;;;5003570;28;20176;-92
2022/03/11 03:19:04;;;;;;;3.47;2.47;;;21.60;52.20;;;;;;5005356;28;20416;-92
2022/03/11 03:21:32;;;;;;;3.60;2.43;;;21.60;52.20;;;;;;5003689;28;20177;-92
2022/03/11 03:23:58;;;;;;;2.87;2.57;;;21.60;52.20;;;;;;5003566;28;20430;-91
2022/03/11 03:26:24;;;;;;;2.70;2.37;;;21.60;52.20;;;;;;5002784;28;20440;-92
2022/03/11 03:28:49;;;;;;;3.03;2.03;;;21.60;52.20;;;;;;5003199;28;20181;-92
2022/03/11 03:31:18;;;;;;;2.57;2.10;;;21.60;52.20;;;;;;5004678;28;20169;-92
2022/03/11 03:33:45;;;;;;;2.73;2.13;;;21.60;52.20;;;;;;5005808;28;20535;-93
2022/03/11 03:36:15;;;;;;;3.10;1.90;;;21.60;52.20;;;;;;5007754;28;20459;-92
2022/03/11 03:38:41;;;;;;;2.37;2.17;;;21.60;52.20;;;;;;5008703;28;20487;-92
2022/03/11 03:41:07;;;;;;;3.20;2.73;;;21.60;52.20;;;;;;5007504;28;20443;-92
2022/03/11 03:43:32;;;;;;;4.00;2.23;;;21.60;52.20;;;;;;5007800;28;20424;-92
2022/03/11 03:45:58;;;;;;;2.47;2.27;;;21.60;52.20;;;;;;5007437;28;20185;-91
2022/03/11 03:48:24;;;;;;;3.60;2.30;;;21.60;52.20;;;;;;5007075;28;20212;-92
2022/03/11 03:51:09;;;;;;;2.47;2.23;;;21.60;52.20;;;;;;5007943;28;20177;-93
2022/03/11 03:53:34;;;;;;;3.30;2.40;;;21.60;52.20;;;;;;5008873;28;20280;-92
2022/03/11 03:56:00;;;;;;;3.40;2.60;;;21.60;52.30;;;;;;5008682;28;20440;-92
2022/03/11 03:58:26;;;;;;;2.80;2.40;;;21.60;52.20;;;;;;5007479;28;20239;-92
2022/03/11 04:00:51;;;;;;;3.10;2.20;;;21.60;52.20;;;;;;5007062;28;20212;-92
2022/03/11 04:03:17;;;;;;;3.27;2.90;;;21.60;52.30;;;;;;5007259;28;20177;-93
2022/03/11 04:05:43;;;;;;;3.30;2.43;;;21.60;52.20;;;;;;5008036;28;20173;-91
2022/03/11 04:08:09;;;;;;;2.70;2.27;;;21.60;52.20;;;;;;5007785;28;20165;-92
2022/03/11 04:10:35;;;;;;;2.73;2.30;;;21.60;52.20;;;;;;5006964;28;20184;-92
2022/03/11 04:13:01;;;;;;;2.00;1.80;;;21.60;52.30;;;;;;5007063;28;20244;-92
2022/03/11 04:15:27;;;;;;;2.53;2.03;;;21.60;52.30;;;;;;5007987;28;20428;-92
2022/03/11 04:17:52;;;;;;;2.33;2.13;;;21.60;52.20;;;;;;5006304;28;20217;-92
2022/03/11 04:20:18;;;;;;;2.30;2.10;;;21.60;52.30;;;;;;5007978;28;20628;-92
2022/03/11 04:22:45;;;;;;;2.80;2.17;;;21.60;52.30;;;;;;5007372;28;20180;-93
2022/03/11 04:25:12;;;;;;;2.53;2.10;;;21.60;52.30;;;;;;5006577;28;20177;-92
2022/03/11 04:27:38;;;;;;;2.40;1.80;;;21.60;52.30;;;;;;5006837;28;20427;-92
2022/03/11 04:30:04;;;;;;;2.87;2.13;;;21.60;52.30;;;;;;5006705;28;20420;-92
2022/03/11 04:32:30;;;;;;;2.70;1.87;;;21.60;52.30;;;;;;5006602;28;20452;-92
2022/03/11 04:34:57;;;;;;;2.43;2.07;;;21.60;52.30;;;;;;5006547;28;20427;-91
2022/03/11 04:37:35;;;;;;;2.53;2.30;;;21.60;52.30;;;;;;5006130;28;20177;-92
2022/03/11 04:40:05;;;;;;;2.80;2.17;;;21.60;52.30;;;;;;5006499;28;20412;-92
2022/03/11 04:42:31;;;;;;;2.10;1.80;;;21.60;52.30;;;;;;5007573;28;20508;-92
2022/03/11 04:44:56;;;;;;;1.97;1.83;;;21.60;52.30;;;;;;5006071;28;20424;-92
2022/03/11 04:47:22;;;;;;;2.50;1.87;;;21.60;52.30;;;;;;5007131;28;20177;-91
2022/03/11 04:49:48;;;;;;;2.77;2.03;;;21.60;52.30;;;;;;5006284;28;20196;-92
2022/03/11 04:52:14;;;;;;;2.33;1.90;;;21.60;52.30;;;;;;5006991;28;20682;-92
2022/03/11 04:54:39;;;;;;;2.40;2.20;;;21.60;52.30;;;;;;5005434;28;20181;-92
2022/03/11 04:57:05;;;;;;;3.63;2.37;;;21.60;52.30;;;;;;5005714;28;20177;-92
2022/03/11 04:59:31;;;;;;;2.23;2.00;;;21.60;52.30;;;;;;5005084;28;20240;-92
2022/03/11 05:01:57;;;;;;;2.87;2.20;;;21.50;52.30;;;;;;5005752;28;20184;-92
2022/03/11 05:04:22;;;;;;;2.60;2.07;;;21.50;52.30;;;;;;5005747;28;20184;-91
2022/03/11 05:06:51;;;;;;;3.60;2.40;;;21.50;52.30;;;;;;5007542;28;20200;-92
2022/03/11 05:09:16;;;;;;;3.10;2.00;;;21.50;52.30;;;;;;5005769;28;20268;-92
2022/03/11 05:11:42;;;;;;;2.53;2.03;;;21.50;52.30;;;;;;5005351;28;20432;-92
2022/03/11 05:14:08;;;;;;;1.90;1.70;;;21.50;52.30;;;;;;5005274;28;20208;-92
2022/03/11 05:16:33;;;;;;;3.23;2.40;;;21.50;52.30;;;;;;5005249;28;20308;-91
2022/03/11 05:18:59;;;;;;;3.00;1.87;;;21.50;52.30;;;;;;5006277;28;20184;-92
2022/03/11 05:21:25;;;;;;;3.10;2.30;;;21.50;52.30;;;;;;5005840;28;20184;-91
2022/03/11 05:23:50;;;;;;;3.67;2.20;;;21.50;52.40;;;;;;5005058;28;20639;-93
2022/03/11 05:26:26;;;;;;;3.17;2.13;;;21.50;52.40;;;;;;5006404;28;20180;-92
2022/03/11 05:28:57;;;;;;;2.90;2.00;;;21.50;52.40;;;;;;5006600;28;20256;-93
2022/03/11 05:31:26;;;;;;;2.90;2.03;;;21.50;52.40;;;;;;5005185;28;20542;-92
2022/03/11 05:33:52;;;;;;;2.00;1.80;;;21.40;52.30;;;;;;5005120;28;20455;-92
2022/03/11 05:36:18;;;;;;;4.07;2.70;;;21.40;52.30;;;;;;5005597;28;20411;-93
2022/03/11 05:38:44;;;;;;;2.33;1.70;;;21.50;52.40;;;;;;5007362;28;20452;-92
2022/03/11 05:41:10;;;;;;;3.70;2.27;;;21.40;52.30;;;;;;5006978;28;20177;-92
2022/03/11 05:46:33;;;;;;;2.50;1.80;;;21.40;52.30;;;;;;5000881;28;20656;-92
2022/03/11 05:48:58;;;;;;;2.43;2.10;;;21.40;52.40;;;;;;5005434;28;20439;-91
2022/03/11 05:51:28;;;;;;;2.50;2.07;;;21.40;52.30;;;;;;5007023;28;20181;-92
2022/03/11 05:53:53;;;;;;;2.60;2.10;;;21.40;52.40;;;;;;5005551;28;20238;-91
2022/03/11 05:56:20;;;;;;;2.20;2.00;;;21.40;52.90;;;;;;5004289;28;20416;-92
2022/03/11 05:58:46;;;;;;;2.87;2.27;;;21.40;52.30;;;;;;5004971;28;20200;-91
2022/03/11 06:01:12;;;;;;;3.00;2.40;;;21.50;52.40;;;;;;5005306;28;20503;-92
2022/03/11 06:03:38;;;;;;;2.20;2.00;;;21.50;53.00;;;;;;5004882;28;20479;-91
2022/03/11 06:06:03;;;;;;;2.73;2.30;;;21.50;52.40;;;;;;5004230;28;20196;-92
2022/03/11 06:08:29;;;;;;;2.90;2.03;;;21.50;52.40;;;;;;5006602;28;20173;-92
2022/03/11 06:10:55;;;;;;;3.03;2.23;;;21.50;52.40;;;;;;5007961;28;20181;-92
2022/03/11 06:13:30;;;;;;;;;;;;;;;;;;;;;
2022/03/11 06:15:56;;;;;;;2.00;1.83;;;21.50;52.40;;;;;;5006100;28;20240;-91
2022/03/11 06:18:27;;;;;;;2.90;2.20;;;21.50;52.40;;;;;;5005275;28;20417;-92
2022/03/11 06:20:53;;;;;;;2.43;2.23;;;21.50;52.40;;;;;;5004756;28;20256;-91
2022/03/11 06:23:18;;;;;;;3.63;2.30;;;21.50;52.40;;;;;;5004502;28;20455;-91
2022/03/11 06:25:47;;;;;;;2.83;2.53;;;21.50;52.40;;;;;;5004326;28;20653;-92
2022/03/11 06:28:17;;;;;;;2.90;2.30;;;21.50;52.40;;;;;;5004413;28;20269;-91
2022/03/11 06:30:45;;;;;;;3.07;1.87;;;21.50;52.30;;;;;;5005015;28;20469;-91
2022/03/11 06:33:11;;;;;;;2.17;1.97;;;21.50;52.30;;;;;;5004553;28;20456;-91
2022/03/11 06:35:38;;;;;;;2.83;2.20;;;21.60;52.40;;;;;;5003931;28;20451;-91
2022/03/11 06:41:22;;;;;;;2.87;2.27;;;21.60;52.40;;;;;;5004338;28;20407;-92
2022/03/11 06:43:47;;;;;;;3.07;2.20;;;21.60;52.40;;;;;;5002280;28;20466;-92
2022/03/11 06:46:13;;;;;;;2.30;1.87;;;21.60;52.40;;;;;;5003017;28;20938;-93
2022/03/11 06:48:39;;;;;;;2.77;1.83;;;21.60;52.40;;;;;;5002908;28;20173;-91
2022/03/11 06:51:07;;;;;;;1.83;1.60;;;21.60;52.40;;;;;;5002671;28;20173;-91
2022/03/11 06:53:36;;;;;;;2.30;2.00;;;21.60;52.30;;;;;;5002227;28;20205;-91
2022/03/11 06:56:04;;;;;;;3.30;2.10;;;21.70;52.40;;;;;;5003273;28;20564;-91
2022/03/11 06:58:30;;;;;;;2.67;2.23;;;21.70;52.40;;;;;;5003098;28;20444;-92
2022/03/11 07:00:57;;;;;;;2.73;2.13;;;21.70;52.40;;;;;;5001882;28;20417;-91
2022/03/11 07:03:23;;;;;;;2.20;1.63;;;21.70;52.40;;;;;;5002427;28;20421;-91
2022/03/11 07:05:49;;;;;;;3.47;2.37;;;21.70;52.30;;;;;;5002353;28;20458;-91
2022/03/11 07:08:15;;;;;;;2.13;1.90;;;21.70;52.30;;;;;;5002308;28;20187;-91
2022/03/11 07:10:40;;;;;;;2.63;2.10;;;21.80;52.40;;;;;;5001922;28;20191;-91
2022/03/11 07:16:34;;;;;;;2.20;1.80;;;21.80;52.30;;;;;;5002714;28;20204;-91
2022/03/11 07:19:01;;;;;;;2.37;2.10;;;21.80;52.30;;;;;;5002976;28;20927;-92
2022/03/11 07:21:30;;;;;;;2.33;1.97;;;21.80;52.30;;;;;;5003509;28;20444;-93
2022/03/11 07:23:56;;;;;;;2.67;2.00;;;21.80;52.30;;;;;;5004075;28;20416;-92
2022/03/11 07:26:22;;;;;;;1.83;1.70;;;21.80;52.30;;;;;;5003500;28;20416;-92
2022/03/11 07:28:48;;;;;;;2.67;1.80;;;21.80;52.30;;;;;;5002782;28;20182;-91
2022/03/11 07:31:14;;;;;;;1.60;1.50;;;21.80;52.20;;;;;;5003835;28;20427;-92
2022/03/11 07:33:43;;;;;;;2.80;1.90;;;21.90;52.30;;;;;;5002616;28;20280;-91
2022/03/11 07:36:09;;;;;;;3.57;1.83;;;21.90;52.30;;;;;;5002600;28;20173;-92
2022/03/11 07:41:57;;;;;;;2.30;2.10;;;21.90;52.30;;;;;;5005725;28;20208;-91
2022/03/11 07:44:23;;;;;;;1.97;1.77;;;21.90;52.30;;;;;;5003995;28;20455;-91
2022/03/11 07:46:48;;;;;;;2.93;2.10;;;21.90;52.30;;;;;;5005073;28;20416;-91
2022/03/11 07:49:14;;;;;;;2.70;2.07;;;21.90;52.30;;;;;;5004402;28;20189;-91
2022/03/11 07:51:40;;;;;;;3.10;1.67;;;21.90;52.30;;;;;;5004722;28;20227;-91
2022/03/11 07:54:06;;;;;;;2.27;1.63;;;21.90;52.20;;;;;;5004215;28;20209;-91
2022/03/11 07:56:34;;;;;;;1.80;1.60;;;22.00;52.30;;;;;;5005030;28;20182;-91
2022/03/11 07:59:05;;;;;;;2.87;1.80;;;22.00;52.30;;;;;;5004841;28;20496;-91
2022/03/11 08:01:31;;;;;;;4.50;1.77;;;22.00;52.30;;;;;;5005140;28;20446;-91
2022/03/11 08:04:00;;;;;;;2.30;1.60;;;22.00;52.30;;;;;;5004830;28;20420;-91
2022/03/11 08:06:28;;;;;;;2.40;2.20;;;22.00;52.30;;;;;;5006189;28;20444;-90
2022/03/11 08:08:58;;;;;;;2.10;1.80;;;22.00;52.30;;;;;;5006021;28;20448;-90
2022/03/11 08:11:27;;;;;;;2.70;1.93;;;22.10;52.40;;;;;;5005822;28;20423;-90
2022/03/11 08:13:53;;;;;;;2.20;1.60;;;22.10;52.40;;;;;;5005487;28;20456;-90
2022/03/11 08:16:20;;;;;;;1.73;1.40;;;22.10;52.40;;;;;;5004240;28;20436;-90
2022/03/11 08:18:46;;;;;;;2.57;2.13;;;22.10;52.40;;;;;;5004902;28;20204;-90
2022/03/11 08:21:12;;;;;;;1.53;1.40;;;22.10;52.40;;;;;;5007201;28;20420;-90
2022/03/11 08:23:40;;;;;;;4.07;2.20;;;22.10;52.40;;;;;;5008370;28;20185;-90
2022/03/11 08:26:06;;;;;;;2.60;2.00;;;22.10;52.40;;;;;;5007853;28;20436;-89
2022/03/11 08:28:35;;;;;;;2.57;1.70;;;22.10;52.40;;;;;;5009452;28;20443;-89
2022/03/11 08:31:01;;;;;;;2.30;1.83;;;22.10;52.40;;;;;;5008952;28;20439;-89
2022/03/11 08:33:30;;;;;;;2.00;1.60;;;22.10;52.40;;;;;;5008306;28;20467;-89
2022/03/11 08:35:56;;;;;;;2.27;1.70;;;22.20;52.50;;;;;;5008049;28;20177;-89
2022/03/11 08:38:22;;;;;;;2.03;1.77;;;22.20;52.50;;;;;;5007940;28;20419;-89
2022/03/11 08:40:48;;;;;;;1.80;1.57;;;22.20;52.50;;;;;;5008652;28;20488;-89
2022/03/11 08:43:14;;;;;;;2.10;1.63;;;22.20;52.50;;;;;;5009073;28;20177;-90
2022/03/11 08:45:42;;;;;;;4.33;2.63;;;22.20;52.50;;;;;;5008743;28;20233;-89
2022/03/11 08:48:08;;;;;;;3.67;2.10;;;22.20;52.50;;;;;;5009530;28;20188;-90
2022/03/11 08:50:34;;;;;;;1.97;1.77;;;22.20;52.50;;;;;;5007352;28;20431;-89
2022/03/11 08:53:00;;;;;;;3.27;1.93;;;22.20;52.50;;;;;;5007787;28;20647;-89
2022/03/11 08:55:26;;;;;;;1.67;1.57;;;22.20;52.50;;;;;;5008987;28;20192;-90
2022/03/11 08:57:52;;;;;;;2.30;2.10;;;22.20;52.50;;;;;;5008760;28;20408;-90
2022/03/11 09:00:20;;;;;;;2.00;1.70;;;22.20;52.50;;;;;;5007569;28;20177;-90
2022/03/11 09:02:47;;;;;;;2.40;1.90;;;22.30;52.50;;;;;;5007570;28;20204;-89
2022/03/11 09:05:18;;;;;;;2.73;2.20;;;22.30;52.50;;;;;;5008457;28;20412;-90
2022/03/11 09:07:44;;;;;;;2.90;2.00;;;22.30;52.50;;;;;;5009029;28;20943;-90
2022/03/11 09:10:12;;;;;;;2.30;1.70;;;22.30;52.50;;;;;;5008591;28;20440;-90
2022/03/11 09:12:40;;;;;;;2.20;1.67;;;22.30;52.60;;;;;;5007923;28;20468;-89
2022/03/11 09:15:06;;;;;;;1.80;1.60;;;22.30;52.50;;;;;;5009307;28;20416;-89
2022/03/11 09:17:32;;;;;;;2.33;1.50;;;22.30;52.50;;;;;;5007168;28;20511;-89
2022/03/11 09:20:02;;;;;;;2.50;1.67;;;22.30;52.50;;;;;;5009305;28;20408;-90
2022/03/11 09:22:29;;;;;;;1.97;1.43;;;22.30;52.50;;;;;;5007696;28;20196;-89
2022/03/11 09:24:54;;;;;;;2.23;1.83;;;22.30;52.50;;;;;;5007567;28;20474;-89
2022/03/11 09:27:23;;;;;;;1.73;1.37;;;22.40;52.60;;;;;;5007405;28;20424;-89
2022/03/11 09:29:49;;;;;;;4.13;1.87;;;22.30;52.50;;;;;;5007450;28;20207;-89
2022/03/11 09:32:15;;;;;;;1.77;1.67;;;22.30;52.50;;;;;;5007344;28;20430;-90
2022/03/11 09:34:43;;;;;;;2.30;1.50;;;22.40;52.60;;;;;;5007600;28;20420;-89
2022/03/11 09:37:10;;;;;;;2.10;1.90;;;22.40;52.60;;;;;;5007375;28;20408;-89
2022/03/11 09:39:38;;;;;;;2.57;1.77;;;22.40;52.60;;;;;;5007699;28;20404;-89
2022/03/11 09:42:05;;;;;;;1.77;1.47;;;22.40;52.60;;;;;;5007364;28;20516;-89
2022/03/11 09:44:33;;;;;;;1.80;1.50;;;22.40;52.60;;;;;;5006048;28;20496;-90
2022/03/11 09:47:02;;;;;;;2.50;1.80;;;22.40;52.60;;;;;;5007190;28;20451;-89
2022/03/11 09:49:33;;;;;;;2.30;1.40;;;22.40;52.60;;;;;;5006238;28;20476;-90
2022/03/11 09:52:00;;;;;;;2.87;1.80;;;22.40;52.50;;;;;;5007155;28;20420;-89
2022/03/11 09:54:32;;;;;;;1.60;1.50;;;22.40;52.50;;;;;;5007305;28;20548;-89
2022/03/11 09:56:58;;;;;;;1.57;1.40;;;22.40;52.50;;;;;;5007234;28;20416;-89
2022/03/11 09:59:24;;;;;;;3.53;1.80;;;22.40;52.50;;;;;;5007852;28;20400;-89
2022/03/11 10:01:51;;;;;;;2.90;1.57;;;22.40;52.50;;;;;;5006084;28;20435;-89
2022/03/11 10:04:17;;;;;;;2.23;1.70;;;22.40;52.50;;;;;;5005730;28;20420;-90
2022/03/11 10:06:48;;;;;;;1.77;1.67;;;22.40;52.50;;;;;;5006734;28;20444;-90
2022/03/11 10:09:20;;;;;;;1.77;1.43;;;22.40;52.50;;;;;;5006051;28;20213;-89
2022/03/11 10:11:49;;;;;;;2.90;2.23;;;22.40;52.50;;;;;;5007013;28;20418;-90
2022/03/11 10:14:16;;;;;;;1.87;1.37;;;22.40;52.50;;;;;;5006349;28;20460;-90
2022/03/11 10:16:44;;;;;;;2.70;1.47;;;22.40;52.50;;;;;;5006983;28;20420;-90
2022/03/11 10:19:16;;;;;;;1.97;1.40;;;22.40;52.50;;;;;;5006180;28;20474;-92
2022/03/11 10:21:45;;;;;;;1.27;1.10;;;22.40;52.50;;;;;;5006752;28;20412;-91
2022/03/11 10:24:16;;;;;;;1.63;1.53;;;22.40;52.50;;;;;;5006315;28;20423;-91
2022/03/11 10:26:43;;;;;;;1.80;1.50;;;22.40;52.60;;;;;;5005660;28;20426;-91
2022/03/11 10:29:11;;;;;;;2.43;1.67;;;22.40;52.60;;;;;;5007519;28;20486;-91
2022/03/11 10:31:40;;;;;;;3.03;2.00;;;22.40;52.60;;;;;;5005883;28;20420;-91
2022/03/11 10:34:36;;;;;;;2.17;1.57;;;22.40;52.60;;;;;;5006247;28;20950;-91
2022/03/11 10:37:04;;;;;;;2.23;1.63;;;22.40;52.60;;;;;;5006985;28;20385;-91
2022/03/11 10:39:38;;;;;;;2.90;1.67;;;22.40;52.60;;;;;;5007412;28;20400;-90
2022/03/11 10:42:13;;;;;;;2.13;1.70;;;22.40;52.60;;;;;;5005753;28;20412;-90
2022/03/11 10:44:40;;;;;;;2.77;1.57;;;22.40;52.60;;;;;;5004819;28;20423;-90
2022/03/11 10:47:23;;;;;;;1.33;1.23;;;22.40;52.60;;;;;;5005322;28;20416;-90
2022/03/11 10:49:51;;;;;;;2.03;1.57;;;22.40;52.60;;;;;;5006688;28;20914;-91
2022/03/11 10:52:41;;;;;;;3.97;1.87;;;22.40;52.60;;;;;;5005180;28;20420;-90
2022/03/11 10:55:26;;;;;;;2.80;1.70;;;22.40;52.60;;;;;;5007569;28;20385;-90
2022/03/11 10:57:53;;;;;;;2.07;1.50;;;22.40;52.60;;;;;;5005173;28;20419;-90
2022/03/11 11:00:25;;;;;;;1.87;1.67;;;22.40;52.60;;;;;;5004746;28;20420;-91
2022/03/11 11:02:54;;;;;;;1.97;1.57;;;22.40;52.60;;;;;;5005306;28;20424;-91
2022/03/11 11:05:21;;;;;;;2.10;1.70;;;22.40;52.60;;;;;;5007196;28;20439;-90
2022/03/11 11:07:51;;;;;;;1.67;1.50;;;22.40;52.60;;;;;;5006515;28;20420;-90
2022/03/11 11:10:21;;;;;;;1.57;1.37;;;22.40;52.60;;;;;;5004650;28;20471;-90
2022/03/11 11:12:48;;;;;;;1.83;1.40;;;22.40;52.60;;;;;;5004578;28;20456;-91
2022/03/11 11:15:17;;;;;;;1.77;1.43;;;22.40;52.60;;;;;;5006096;28;20440;-92
2022/03/11 11:17:49;;;;;;;1.70;1.33;;;22.40;52.60;;;;;;5005559;28;20446;-90
2022/03/11 11:20:33;;;;;;;1.70;1.43;;;22.40;52.60;;;;;;5005583;28;20439;-90
2022/03/11 11:23:06;;;;;;;1.97;1.77;;;22.40;52.60;;;;;;5005016;28;20482;-91
2022/03/11 11:25:34;;;;;;;2.10;1.57;;;22.40;52.60;;;;;;5005486;28;20475;-91
2022/03/11 11:28:09;;;;;;;1.70;1.53;;;22.40;52.60;;;;;;5005131;28;20421;-91
2022/03/11 11:30:37;;;;;;;2.63;1.20;;;22.40;52.60;;;;;;5005274;28;20998;-90
2022/03/11 11:33:03;;;;;;;2.10;1.70;;;22.40;52.60;;;;;;5006797;28;20958;-90
2022/03/11 11:35:41;;;;;;;1.77;1.40;;;22.40;52.60;;;;;;5006687;28;20415;-90
2022/03/11 11:38:28;;;;;;;1.70;1.30;;;22.50;52.70;;;;;;5006239;28;20404;-91
2022/03/11 11:40:55;;;;;;;1.93;1.50;;;22.50;52.70;;;;;;5005323;28;20419;-90
2022/03/11 11:43:27;;;;;;;1.77;1.27;;;22.40;52.60;;;;;;5005659;28;20499;-90
2022/03/11 11:45:55;;;;;;;1.83;1.70;;;22.50;52.70;;;;;;5005299;28;20418;-90
2022/03/11 11:48:42;;;;;;;2.13;1.83;;;22.40;52.50;;;;;;5006432;28;20412;-90
2022/03/11 11:51:18;;;;;;;2.23;1.87;;;22.40;52.50;;;;;;5005579;28;20766;-88
2022/03/11 11:53:55;;;;;;;1.53;1.20;;;22.40;52.50;;;;;;5007387;28;20514;-89
2022/03/11 11:56:48;;;;;;;1.70;1.47;;;22.50;52.60;;;;;;5010800;28;20443;-90
2022/03/11 11:59:25;;;;;;;2.23;1.90;;;22.40;52.50;;;;;;5011172;28;20397;-89
2022/03/11 12:02:01;;;;;;;1.90;1.40;;;22.40;52.50;;;;;;5010470;28;20412;-91
2022/03/11 12:04:29;;;;;;;1.93;1.70;;;22.40;52.50;;;;;;5008313;28;20925;-89
2022/03/11 12:07:00;;;;;;;2.33;1.87;;;22.40;52.50;;;;;;5008554;28;20422;-89
2022/03/11 12:09:41;;;;;;;5.03;2.40;;;22.40;52.50;;;;;;5009963;28;20415;-89
2022/03/11 12:12:25;;;;;;;5.50;3.33;;;22.40;52.50;;;;;;5009132;28;20444;-89
2022/03/11 12:14:57;;;;;;;12.20;4.70;;;22.40;52.50;;;;;;5010113;28;20474;-89
2022/03/11 12:17:42;;;;;;;10.20;5.40;;;22.40;52.50;;;;;;5009283;28;20436;-90
2022/03/11 12:20:52;;;;;;;15.03;5.10;;;22.40;52.50;;;;;;5008979;28;20419;-89
2022/03/11 12:23:19;;;;;;;16.37;6.63;;;22.40;52.50;;;;;;5004366;28;20424;-89
2022/03/11 12:25:54;;;;;;;17.80;5.80;;;22.40;52.50;;;;;;5008789;28;20434;-89
2022/03/11 12:28:35;;;;;;;11.50;5.53;;;22.40;52.60;;;;;;5008789;28;20423;-89
2022/03/11 12:31:04;;;;;;;15.30;7.00;;;22.40;52.60;;;;;;5008711;28;20431;-90
2022/03/11 12:33:46;;;;;;;16.40;7.50;;;22.40;52.60;;;;;;5008230;28;20523;-89
2022/03/11 12:36:19;;;;;;;16.03;7.50;;;22.40;52.60;;;;;;5009093;28;20409;-89
2022/03/11 12:38:49;;;;;;;16.13;6.67;;;22.40;52.60;;;;;;5008568;28;20435;-89
2022/03/11 12:41:23;;;;;;;15.03;7.47;;;22.40;52.60;;;;;;5010061;28;20434;-89
2022/03/11 12:43:49;;;;;;;24.23;8.20;;;22.40;52.60;;;;;;5008331;28;20859;-89
2022/03/11 12:46:15;;;;;;;17.83;7.33;;;22.40;52.60;;;;;;5008581;28;20424;-88
2022/03/11 12:48:43;;;;;;;14.60;7.50;;;22.30;52.50;;;;;;5009615;28;20204;-89
2022/03/11 12:51:18;;;;;;;24.03;8.47;;;22.40;52.60;;;;;;5008330;28;20424;-89
2022/03/11 12:53:50;;;;;;;15.90;7.00;;;22.40;52.60;;;;;;5009193;28;20494;-89
2022/03/11 12:56:17;;;;;;;15.27;6.60;;;22.30;52.50;;;;;;5009252;28;20495;-89
2022/03/11 12:58:43;;;;;;;21.67;9.20;;;22.30;52.50;;;;;;5007427;28;20413;-90
2022/03/11 13:01:11;;;;;;;16.30;7.00;;;22.30;52.50;;;;;;5008071;28;20451;-90
2022/03/11 13:03:39;;;;;;;13.87;7.20;;;22.30;52.50;;;;;;5008094;28;20249;-90
2022/03/11 13:06:09;;;;;;;20.63;7.07;;;22.30;52.50;;;;;;5007848;28;20946;-89
2022/03/11 13:08:36;;;;;;;15.53;7.43;;;22.30;52.50;;;;;;5009094;28;20743;-89